Главная страница
METAR-TAF:

METAR-TAF

Аэропорты :

Коутсвилл, Пенсильвания, США

широта: 39-58-44N, долгота: 075-51-56W, высота над уровнем моря: 201 м

Текущие метеонаблюдения

Эта сводка был подготовлена 16 минут назад, в 02:55 UTC
Ветер 5 Узел от северный
Температура 21°C
Влажность 78%
Давление 1015 hPa
Видимость: 16.1 км
ясное небо

METAR: KMQS 270255Z AUTO 35005KT 10SM CLR 21/17 A2996 RMK AO2

Время: 23:11 (03:11 UTC)


TAF: отсутствует

Метеонаблюдения и прогнозы для более 4000 аэропортов (сводки METAR и TAF).

Имеющиеся станции представлены на карте желтыми и красными точками.

Чтобы увидеть название станции, наведите на нее мышь.

Затем щелкните, чтобы увидеть метеонаблюдения и метеопрогнозы.

Управление картой: чтобы увеличить масштаб, щелкните зеленые кнопки с черным крестиком; чтобы уменьшить масштаб, щелкните зеленую кнопку с тире; для просмотра соседних карт щелкайте зеленые стрелки.


METAR-TAF: